Time;durP1;ratioP1;P1;durP2;ratioP2;P2;SDS_P1;SDS_P2;PMS_P1;PMS_P2;Temp;Humidity;BMP_temperature;BMP_pressure;BME280_temperature;BME280_humidity;BME280_pressure;Samples;Min_cycle;Max_cycle;Signal;HPM_P1;HPM_P2
2023/06/24 00:00:13;;;;;;;7.10;6.40;;;17.10;99.90;;;;;;5050942;28;20198;-62
2023/06/24 00:02:43;;;;;;;8.20;7.50;;;17.10;99.90;;;;;;5049803;28;20213;-62
2023/06/24 00:05:10;;;;;;;8.20;7.47;;;17.20;99.90;;;;;;5047156;28;20218;-62
2023/06/24 00:07:44;;;;;;;8.77;7.90;;;17.20;99.90;;;;;;5050945;28;20696;-62
2023/06/24 00:10:11;;;;;;;8.60;7.93;;;17.20;99.90;;;;;;5050844;28;20293;-62
2023/06/24 00:12:39;;;;;;;8.10;7.43;;;17.10;99.90;;;;;;5049635;28;20201;-62
2023/06/24 00:15:09;;;;;;;8.80;8.10;;;17.00;99.90;;;;;;5049652;28;20229;-62
2023/06/24 00:17:36;;;;;;;8.60;8.00;;;16.90;99.90;;;;;;5046413;28;20579;-62
2023/06/24 00:20:07;;;;;;;7.23;6.63;;;16.80;99.90;;;;;;5050675;28;20745;-62
2023/06/24 00:22:34;;;;;;;8.80;8.00;;;16.80;99.90;;;;;;5049871;28;20202;-62
2023/06/24 00:25:01;;;;;;;9.37;8.47;;;16.80;99.90;;;;;;5049834;28;20217;-62
2023/06/24 00:27:29;;;;;;;9.80;7.57;;;16.70;99.90;;;;;;5050323;28;20224;-62
2023/06/24 00:29:56;;;;;;;9.40;8.60;;;16.60;99.90;;;;;;5049336;28;20279;-62
2023/06/24 00:32:26;;;;;;;8.10;7.40;;;16.60;99.90;;;;;;5048560;28;20198;-62
2023/06/24 00:34:53;;;;;;;8.60;7.93;;;16.60;99.90;;;;;;5048884;28;20256;-62
2023/06/24 00:37:20;;;;;;;9.97;7.60;;;16.50;99.90;;;;;;5050156;28;20263;-62
2023/06/24 00:39:46;;;;;;;15.53;9.50;;;16.50;99.90;;;;;;5050263;28;20282;-61
2023/06/24 00:42:13;;;;;;;9.57;8.87;;;16.40;99.90;;;;;;5049203;28;20263;-62
2023/06/24 00:44:40;;;;;;;8.53;7.73;;;16.30;99.90;;;;;;5049173;28;20291;-62
2023/06/24 00:47:09;;;;;;;9.03;8.17;;;16.30;99.90;;;;;;5040946;28;20279;-62
2023/06/24 00:49:38;;;;;;;10.57;8.77;;;16.20;99.90;;;;;;5030645;28;20309;-62
2023/06/24 00:52:06;;;;;;;9.90;9.10;;;16.20;99.90;;;;;;5048667;28;20198;-62
2023/06/24 00:54:32;;;;;;;9.13;8.33;;;16.10;99.90;;;;;;5049483;28;20251;-62
2023/06/24 00:57:01;;;;;;;10.53;9.70;;;16.10;99.90;;;;;;5049851;28;20594;-62
2023/06/24 00:59:31;;;;;;;9.10;8.30;;;16.10;99.90;;;;;;5049782;28;20229;-62
2023/06/24 01:02:01;;;;;;;11.50;10.60;;;16.10;99.90;;;;;;5049975;28;20202;-62
2023/06/24 01:04:28;;;;;;;9.13;8.23;;;16.10;99.90;;;;;;5046209;28;20285;-62
2023/06/24 01:06:58;;;;;;;10.10;9.30;;;16.10;99.90;;;;;;5049606;28;20673;-62
2023/06/24 01:09:25;;;;;;;9.60;8.80;;;16.10;99.90;;;;;;5049763;28;20225;-62
2023/06/24 01:11:52;;;;;;;10.47;9.50;;;16.10;99.90;;;;;;5049783;28;20202;-62
2023/06/24 01:14:22;;;;;;;9.60;8.47;;;16.10;99.90;;;;;;5049201;28;20251;-62
2023/06/24 01:16:57;;;;;;;10.97;9.87;;;16.00;99.90;;;;;;5048209;28;20205;-61
2023/06/24 01:19:54;;;;;;;10.20;9.40;;;16.00;99.90;;;;;;5043945;28;20319;-62
2023/06/24 01:23:01;;;;;;;9.70;8.90;;;16.00;99.90;;;;;;5029783;28;20264;-62
2023/06/24 01:25:42;;;;;;;9.77;8.87;;;16.00;99.90;;;;;;5046751;28;20217;-62
2023/06/24 01:28:34;;;;;;;10.00;9.20;;;16.00;99.90;;;;;;5030029;28;20288;-62
2023/06/24 01:31:30;;;;;;;9.77;8.87;;;16.00;99.90;;;;;;5046586;28;20610;-62
2023/06/24 01:34:06;;;;;;;10.47;9.47;;;16.00;99.90;;;;;;5047940;28;20202;-61
2023/06/24 01:36:35;;;;;;;11.57;9.67;;;16.10;99.90;;;;;;5046216;28;20632;-62
2023/06/24 01:39:06;;;;;;;9.70;8.77;;;16.10;99.90;;;;;;5048728;28;20260;-62
2023/06/24 01:41:37;;;;;;;9.77;8.97;;;16.00;99.90;;;;;;5047566;28;20203;-62
2023/06/24 01:44:05;;;;;;;10.73;9.87;;;16.00;99.90;;;;;;5049169;28;20676;-62
2023/06/24 01:46:34;;;;;;;9.57;8.77;;;16.00;99.90;;;;;;5048718;28;20206;-63
2023/06/24 01:49:03;;;;;;;11.07;8.50;;;16.00;99.90;;;;;;5049421;28;20279;-61
2023/06/24 01:51:33;;;;;;;8.60;7.97;;;16.00;99.90;;;;;;5049519;28;20591;-62
2023/06/24 01:54:03;;;;;;;9.87;8.97;;;15.90;99.90;;;;;;5048417;28;20198;-62
2023/06/24 01:56:33;;;;;;;8.90;8.07;;;15.90;99.90;;;;;;5048493;28;20604;-62
2023/06/24 01:59:03;;;;;;;7.77;7.17;;;15.90;99.90;;;;;;5049091;28;20642;-62
2023/06/24 02:01:34;;;;;;;9.17;8.27;;;15.80;99.90;;;;;;5052518;28;20228;-62
2023/06/24 02:04:03;;;;;;;9.30;8.40;;;15.70;99.90;;;;;;5052963;28;20202;-62
2023/06/24 02:06:31;;;;;;;8.90;8.10;;;15.70;99.90;;;;;;5051180;28;20524;-62
2023/06/24 02:08:59;;;;;;;9.13;8.43;;;15.70;99.90;;;;;;5052814;28;20691;-62
2023/06/24 02:11:29;;;;;;;8.30;7.60;;;15.60;99.90;;;;;;5053102;28;20687;-62
2023/06/24 02:13:56;;;;;;;9.00;8.30;;;15.60;99.90;;;;;;5052703;28;20742;-61
2023/06/24 02:16:25;;;;;;;7.40;6.90;;;15.60;99.90;;;;;;5052222;28;20202;-62
2023/06/24 02:18:54;;;;;;;9.10;8.27;;;15.60;99.90;;;;;;5051460;28;20249;-63
2023/06/24 02:21:24;;;;;;;9.77;8.73;;;15.70;99.90;;;;;;5052736;28;20206;-62
2023/06/24 02:23:52;;;;;;;9.03;8.40;;;15.80;99.90;;;;;;5052798;28;20198;-62
2023/06/24 02:26:19;;;;;;;8.70;7.93;;;15.70;99.90;;;;;;5052254;28;20651;-62
2023/06/24 02:28:46;;;;;;;8.77;8.07;;;15.70;99.90;;;;;;5052658;28;20213;-62
2023/06/24 02:31:15;;;;;;;8.10;7.47;;;15.70;99.90;;;;;;5050747;28;20329;-62
2023/06/24 02:33:42;;;;;;;7.80;7.10;;;15.60;99.90;;;;;;5052451;28;20267;-62
2023/06/24 02:36:11;;;;;;;9.27;8.37;;;15.60;99.90;;;;;;5039642;28;20331;-62
2023/06/24 02:38:38;;;;;;;9.97;8.97;;;15.60;99.90;;;;;;5052313;28;20217;-62
2023/06/24 02:41:05;;;;;;;8.30;7.67;;;15.60;99.90;;;;;;5052375;28;20587;-62
2023/06/24 02:43:31;;;;;;;8.80;7.97;;;15.60;99.90;;;;;;5050139;28;20301;-61
2023/06/24 02:46:00;;;;;;;9.20;8.03;;;15.60;99.90;;;;;;5051567;28;20218;-62
2023/06/24 02:48:29;;;;;;;9.17;8.47;;;15.70;99.90;;;;;;5051346;28;20295;-62
2023/06/24 02:50:57;;;;;;;8.33;7.60;;;15.70;99.90;;;;;;5052145;28;20271;-63
2023/06/24 02:53:27;;;;;;;7.77;7.17;;;15.60;99.90;;;;;;5052142;28;20629;-62
2023/06/24 02:55:56;;;;;;;8.37;7.77;;;15.50;99.90;;;;;;5050191;28;20190;-62
2023/06/24 02:58:31;;;;;;;8.07;7.37;;;15.50;99.90;;;;;;5075020;22;20217;-58
2023/06/24 03:00:59;;;;;;;8.93;8.10;;;15.60;99.90;;;;;;5053367;28;20662;-58
2023/06/24 03:03:28;;;;;;;9.07;8.17;;;15.50;99.90;;;;;;5052432;28;20251;-58
2023/06/24 03:05:57;;;;;;;9.33;8.53;;;15.60;99.90;;;;;;5051787;28;20317;-58
2023/06/24 03:08:26;;;;;;;9.30;8.37;;;15.60;99.90;;;;;;5051173;28;20216;-58
2023/06/24 03:10:56;;;;;;;7.57;6.97;;;15.60;99.90;;;;;;5072668;28;20251;-58
2023/06/24 03:13:23;;;;;;;8.10;7.33;;;15.70;99.90;;;;;;5072438;28;20288;-58
2023/06/24 03:15:50;;;;;;;9.77;8.77;;;15.80;99.90;;;;;;5072898;28;20203;-59
2023/06/24 03:18:18;;;;;;;8.77;8.07;;;15.80;99.90;;;;;;5073045;28;20297;-59
2023/06/24 03:20:45;;;;;;;8.80;8.13;;;15.90;99.90;;;;;;5070880;28;20267;-59
2023/06/24 03:23:12;;;;;;;8.67;7.87;;;15.90;99.90;;;;;;5072176;28;20201;-58
2023/06/24 03:25:40;;;;;;;9.93;9.13;;;15.90;99.90;;;;;;5072775;28;20267;-58
2023/06/24 03:28:08;;;;;;;10.90;8.50;;;16.00;99.90;;;;;;5072794;28;20267;-59
2023/06/24 03:30:35;;;;;;;9.33;8.53;;;15.90;99.90;;;;;;5072748;28;20292;-58
2023/06/24 03:33:02;;;;;;;9.07;8.13;;;16.00;99.90;;;;;;5071662;28;20212;-59
2023/06/24 03:35:29;;;;;;;8.50;7.83;;;15.90;99.90;;;;;;5070629;28;20699;-58
2023/06/24 03:37:56;;;;;;;7.90;7.30;;;15.90;99.90;;;;;;5072808;28;20228;-58
2023/06/24 03:40:23;;;;;;;7.67;7.07;;;15.90;99.90;;;;;;5072400;28;20205;-58
2023/06/24 03:42:51;;;;;;;8.47;7.67;;;15.90;99.90;;;;;;5071436;28;20247;-59
2023/06/24 03:45:18;;;;;;;8.37;7.60;;;16.00;99.90;;;;;;5072366;28;20270;-58
2023/06/24 03:47:45;;;;;;;8.30;7.70;;;16.00;99.90;;;;;;5070372;28;20759;-58
2023/06/24 03:50:12;;;;;;;7.83;7.13;;;16.00;99.90;;;;;;5072461;28;20282;-58
2023/06/24 03:52:39;;;;;;;8.83;7.67;;;16.00;99.90;;;;;;5071587;28;20286;-59
2023/06/24 03:55:07;;;;;;;13.20;7.50;;;16.00;99.90;;;;;;5072120;28;20200;-59
2023/06/24 03:57:34;;;;;;;7.63;7.00;;;16.10;99.90;;;;;;5072284;28;20207;-59
2023/06/24 04:00:06;;;;;;;7.57;7.03;;;16.00;99.90;;;;;;5069583;28;20273;-58
2023/06/24 04:02:33;;;;;;;8.27;7.53;;;16.00;99.90;;;;;;5070971;28;20200;-58
2023/06/24 04:04:59;;;;;;;6.73;6.03;;;16.00;99.90;;;;;;5069217;28;20263;-59
2023/06/24 04:07:28;;;;;;;7.40;6.87;;;16.10;99.90;;;;;;5068026;28;20266;-58
2023/06/24 04:09:56;;;;;;;8.37;7.70;;;16.10;99.90;;;;;;5069941;28;20308;-59
2023/06/24 04:12:25;;;;;;;6.87;6.27;;;16.10;99.90;;;;;;5071756;28;20618;-59
2023/06/24 04:14:52;;;;;;;6.90;6.50;;;16.20;99.90;;;;;;5070881;28;20201;-59
2023/06/24 04:17:20;;;;;;;7.63;7.03;;;16.20;99.90;;;;;;5069557;28;20744;-58
2023/06/24 04:19:47;;;;;;;7.43;6.77;;;16.20;99.90;;;;;;5071410;28;20218;-59
2023/06/24 04:22:14;;;;;;;8.17;6.83;;;16.30;99.90;;;;;;5071475;28;20266;-60
2023/06/24 04:24:41;;;;;;;8.17;7.57;;;16.30;99.90;;;;;;5071133;28;20274;-60
2023/06/24 04:27:09;;;;;;;12.83;6.83;;;16.30;99.90;;;;;;5071449;28;20209;-60
2023/06/24 04:29:36;;;;;;;7.17;6.23;;;16.30;99.90;;;;;;5071515;28;20312;-59
2023/06/24 04:32:04;;;;;;;7.60;7.03;;;16.40;99.90;;;;;;5069873;28;20205;-59
2023/06/24 04:34:32;;;;;;;7.47;6.77;;;16.40;99.90;;;;;;5070669;28;20201;-60
2023/06/24 04:36:59;;;;;;;7.00;6.27;;;16.50;99.90;;;;;;5067385;28;20692;-59
2023/06/24 04:39:26;;;;;;;9.23;7.50;;;16.60;99.90;;;;;;5069592;28;20935;-59
2023/06/24 04:41:54;;;;;;;7.30;6.80;;;16.70;99.90;;;;;;5067866;28;20310;-60
2023/06/24 04:44:21;;;;;;;7.57;7.07;;;16.70;99.90;;;;;;5060346;28;20760;-59
2023/06/24 04:46:48;;;;;;;11.33;7.63;;;16.70;99.90;;;;;;5068560;28;20225;-60
2023/06/24 04:49:15;;;;;;;7.80;7.10;;;16.70;99.90;;;;;;5071343;28;20221;-59
2023/06/24 04:51:43;;;;;;;8.17;7.50;;;16.80;99.90;;;;;;5071335;28;20251;-59
2023/06/24 04:54:12;;;;;;;8.00;7.40;;;16.80;99.90;;;;;;5070254;28;20255;-58
2023/06/24 04:56:39;;;;;;;8.17;7.47;;;16.80;99.90;;;;;;5070001;28;20201;-59
2023/06/24 04:59:06;;;;;;;8.27;7.60;;;16.90;99.90;;;;;;5070350;28;20237;-58
2023/06/24 05:01:33;;;;;;;8.77;8.03;;;16.90;99.90;;;;;;5071150;28;20209;-58
2023/06/24 05:03:59;;;;;;;11.93;8.50;;;17.00;99.90;;;;;;5071243;28;20277;-58
2023/06/24 05:06:27;;;;;;;8.23;7.63;;;17.00;99.90;;;;;;5070767;28;20231;-59
2023/06/24 05:08:55;;;;;;;8.60;7.83;;;17.10;99.90;;;;;;5070856;28;20302;-59
2023/06/24 05:11:22;;;;;;;7.83;7.17;;;17.20;99.90;;;;;;5071289;28;20212;-59
2023/06/24 05:13:49;;;;;;;9.23;8.13;;;17.10;99.90;;;;;;5070819;28;20582;-59
2023/06/24 05:16:16;;;;;;;6.87;6.37;;;17.20;99.90;;;;;;5065703;28;20205;-58
2023/06/24 05:18:45;;;;;;;8.43;7.83;;;17.20;99.90;;;;;;5070757;28;20293;-59
2023/06/24 05:21:12;;;;;;;7.80;7.10;;;17.20;99.90;;;;;;5067265;28;20201;-59
2023/06/24 05:23:39;;;;;;;8.90;8.00;;;17.30;99.90;;;;;;5066512;28;20319;-59
2023/06/24 05:26:08;;;;;;;8.90;8.20;;;17.40;99.90;;;;;;5070930;28;20221;-58
2023/06/24 05:28:35;;;;;;;9.33;7.67;;;17.40;99.90;;;;;;5070806;28;20221;-59
2023/06/24 05:31:02;;;;;;;7.83;7.23;;;17.40;99.90;;;;;;5069169;28;20620;-59
2023/06/24 05:33:29;;;;;;;8.77;8.07;;;17.50;99.90;;;;;;5062161;28;20204;-59
2023/06/24 05:35:56;;;;;;;8.23;7.63;;;17.70;99.90;;;;;;5074522;28;20198;-59
2023/06/24 05:38:22;;;;;;;7.30;6.70;;;17.80;99.90;;;;;;5074578;28;20277;-60
2023/06/24 05:40:49;;;;;;;7.07;6.47;;;17.90;99.90;;;;;;5074896;28;20274;-59
2023/06/24 05:43:18;;;;;;;7.77;7.00;;;17.90;99.90;;;;;;5074691;28;20227;-59
2023/06/24 05:45:45;;;;;;;6.87;6.37;;;17.90;99.90;;;;;;5074502;28;20275;-59
2023/06/24 05:48:12;;;;;;;7.43;6.93;;;18.00;99.90;;;;;;5074428;28;20197;-59
2023/06/24 05:50:39;;;;;;;8.33;7.63;;;18.10;99.90;;;;;;5074799;28;20201;-59
2023/06/24 05:53:05;;;;;;;6.57;6.17;;;18.20;99.90;;;;;;5064071;28;20205;-59
2023/06/24 05:55:32;;;;;;;7.13;6.53;;;18.20;99.90;;;;;;5074396;28;20258;-59
2023/06/24 05:57:59;;;;;;;6.37;5.87;;;18.20;99.90;;;;;;5074296;28;20243;-59
2023/06/24 06:00:28;;;;;;;7.20;6.63;;;18.20;99.90;;;;;;5074400;28;20200;-59
2023/06/24 06:02:54;;;;;;;6.53;5.93;;;18.20;99.90;;;;;;5074130;28;20197;-59
2023/06/24 06:05:21;;;;;;;6.13;5.57;;;18.20;99.90;;;;;;5066873;28;20231;-59
2023/06/24 06:07:48;;;;;;;7.23;6.53;;;18.20;99.90;;;;;;5065734;28;20212;-59
2023/06/24 06:10:17;;;;;;;7.23;6.73;;;18.20;99.90;;;;;;5074446;28;20275;-59
2023/06/24 06:12:44;;;;;;;6.43;5.93;;;18.30;99.90;;;;;;5063721;28;20193;-59
2023/06/24 06:15:11;;;;;;;6.87;6.17;;;18.20;99.90;;;;;;5066548;28;20194;-59
2023/06/24 06:17:40;;;;;;;6.90;6.40;;;18.30;99.90;;;;;;5069757;28;20208;-59
2023/06/24 06:20:08;;;;;;;5.93;5.30;;;18.40;99.90;;;;;;5065161;28;20219;-58
2023/06/24 06:22:37;;;;;;;7.50;6.83;;;18.50;99.90;;;;;;5073482;28;20205;-58
2023/06/24 06:25:05;;;;;;;9.00;7.30;;;18.70;99.90;;;;;;5062646;28;20207;-59
2023/06/24 06:27:32;;;;;;;7.40;6.93;;;18.90;99.90;;;;;;5071831;28;20221;-59
2023/06/24 06:29:59;;;;;;;8.07;6.87;;;19.10;99.90;;;;;;5073115;28;20225;-59
2023/06/24 06:32:28;;;;;;;6.63;6.13;;;19.00;99.90;;;;;;5071846;28;20201;-59
2023/06/24 06:34:56;;;;;;;7.00;6.50;;;19.10;99.90;;;;;;5069176;28;20659;-58
2023/06/24 06:37:23;;;;;;;7.33;6.83;;;19.30;99.90;;;;;;5067494;28;20247;-59
2023/06/24 06:39:50;;;;;;;7.60;6.90;;;19.30;99.90;;;;;;5072123;28;20217;-59
2023/06/24 06:42:17;;;;;;;7.77;7.03;;;19.50;99.90;;;;;;5072214;28;20197;-59
2023/06/24 06:44:44;;;;;;;7.67;6.97;;;19.70;99.90;;;;;;5072765;28;20255;-59
2023/06/24 06:47:12;;;;;;;8.00;7.37;;;19.90;99.90;;;;;;5059090;28;20279;-59
2023/06/24 06:49:39;;;;;;;8.10;7.40;;;20.10;99.90;;;;;;5065777;28;20236;-59
2023/06/24 06:52:08;;;;;;;7.50;6.87;;;20.30;99.90;;;;;;5072913;28;20197;-58
2023/06/24 06:54:35;;;;;;;6.63;6.13;;;20.50;99.90;;;;;;5073526;28;20209;-59
2023/06/24 06:57:03;;;;;;;7.63;6.07;;;20.60;99.90;;;;;;5071383;28;20217;-59
2023/06/24 06:59:30;;;;;;;7.63;6.90;;;20.70;99.90;;;;;;5071924;28;20722;-59
2023/06/24 07:01:57;;;;;;;7.33;6.73;;;20.70;99.90;;;;;;5073099;28;20197;-59
2023/06/24 07:04:25;;;;;;;8.37;7.57;;;20.90;99.90;;;;;;5070998;28;20736;-59
2023/06/24 07:06:52;;;;;;;7.60;7.00;;;21.10;99.90;;;;;;5070563;28;20220;-59
2023/06/24 07:09:21;;;;;;;8.77;7.97;;;21.30;99.90;;;;;;5069086;28;20328;-59
2023/06/24 07:11:48;;;;;;;9.53;7.87;;;21.20;99.90;;;;;;5070002;28;20205;-59
2023/06/24 07:14:15;;;;;;;8.37;7.63;;;21.20;99.90;;;;;;5070761;28;20274;-59
2023/06/24 07:16:42;;;;;;;8.40;7.67;;;21.00;99.90;;;;;;5075913;28;20193;-59
2023/06/24 07:19:09;;;;;;;8.40;7.90;;;20.90;99.90;;;;;;5070939;28;20224;-59
2023/06/24 07:21:36;;;;;;;8.20;7.60;;;20.90;99.90;;;;;;5073021;28;20197;-59
2023/06/24 07:24:03;;;;;;;8.97;8.23;;;21.00;99.90;;;;;;5072650;28;20258;-59
2023/06/24 07:26:31;;;;;;;8.33;7.73;;;20.90;99.90;;;;;;5071306;28;20221;-59
2023/06/24 07:28:59;;;;;;;9.03;8.40;;;20.80;99.90;;;;;;5071278;28;20222;-59
2023/06/24 07:31:26;;;;;;;9.03;8.33;;;20.70;99.90;;;;;;5071169;28;20685;-59
2023/06/24 07:33:53;;;;;;;10.40;9.37;;;20.60;99.90;;;;;;5071249;28;20265;-59
2023/06/24 07:36:19;;;;;;;8.90;8.13;;;20.40;99.90;;;;;;5072492;28;20262;-59
2023/06/24 07:38:46;;;;;;;9.37;8.57;;;20.40;99.90;;;;;;5073349;28;20282;-59
2023/06/24 07:41:13;;;;;;;8.57;7.90;;;20.20;99.90;;;;;;5069697;28;20209;-58
2023/06/24 07:43:42;;;;;;;8.23;7.63;;;20.10;99.90;;;;;;5068119;28;20232;-59
2023/06/24 07:46:09;;;;;;;8.70;7.97;;;20.20;99.90;;;;;;5072690;28;20229;-59
2023/06/24 07:48:35;;;;;;;7.70;7.10;;;20.50;99.90;;;;;;5071095;28;20221;-59
2023/06/24 07:51:02;;;;;;;8.00;7.20;;;20.80;99.90;;;;;;5072067;28;20259;-58
2023/06/24 07:53:29;;;;;;;8.13;7.53;;;21.20;99.90;;;;;;5076634;28;20209;-59
2023/06/24 07:55:56;;;;;;;7.27;6.67;;;21.90;99.90;;;;;;5077596;28;20250;-59
2023/06/24 07:58:23;;;;;;;8.07;7.47;;;22.00;99.90;;;;;;5070803;28;20717;-59
2023/06/24 08:00:51;;;;;;;7.97;7.43;;;22.30;99.90;;;;;;5068039;28;20211;-59
2023/06/24 08:03:18;;;;;;;7.57;7.07;;;23.20;99.90;;;;;;5072149;28;20342;-59
2023/06/24 08:05:45;;;;;;;8.30;7.70;;;23.70;99.90;;;;;;5071380;28;20635;-60
2023/06/24 08:08:12;;;;;;;7.40;6.77;;;23.70;99.90;;;;;;5068354;28;20235;-60
2023/06/24 08:10:39;;;;;;;7.70;7.00;;;23.50;99.90;;;;;;5071943;28;20197;-60
2023/06/24 08:13:06;;;;;;;6.43;6.03;;;23.50;99.90;;;;;;5076916;28;20670;-60
2023/06/24 08:15:33;;;;;;;6.27;5.83;;;23.60;99.90;;;;;;5092447;28;20393;-60
2023/06/24 08:18:01;;;;;;;6.03;5.63;;;23.90;99.90;;;;;;5092212;28;20242;-60
2023/06/24 08:20:28;;;;;;;7.60;7.10;;;24.90;99.90;;;;;;5081334;28;20197;-60
2023/06/24 08:22:55;;;;;;;6.77;6.20;;;26.00;99.90;;;;;;5069986;28;20331;-59
2023/06/24 08:25:22;;;;;;;7.30;6.80;;;26.50;99.90;;;;;;5069012;28;20205;-59
2023/06/24 08:27:49;;;;;;;7.27;6.60;;;26.30;99.90;;;;;;5071692;28;20266;-59
2023/06/24 08:30:16;;;;;;;6.20;5.80;;;26.70;99.90;;;;;;5071028;28;20717;-59
2023/06/24 08:32:43;;;;;;;7.47;7.03;;;26.80;99.90;;;;;;5071656;28;20205;-59
2023/06/24 08:35:11;;;;;;;6.60;6.23;;;27.60;99.90;;;;;;5071534;28;20269;-59
2023/06/24 08:37:38;;;;;;;7.22;6.80;;;28.30;99.90;;;;;;5071718;28;20193;-59
2023/06/24 08:40:07;;;;;;;6.95;6.45;;;28.60;99.90;;;;;;5069562;28;20271;-60
2023/06/24 08:42:34;;;;;;;5.90;5.57;;;29.20;99.90;;;;;;5071153;28;20803;-60
2023/06/24 08:45:01;;;;;;;7.13;6.55;;;28.90;99.90;;;;;;5071534;28;20640;-59
2023/06/24 08:47:32;;;;;;;7.68;7.18;;;29.30;99.90;;;;;;5065884;28;20217;-59
2023/06/24 08:50:04;;;;;;;6.28;5.88;;;29.00;99.90;;;;;;5071185;28;20221;-60
2023/06/24 08:52:36;;;;;;;6.72;6.32;;;29.60;99.90;;;;;;5071392;28;20201;-59
2023/06/24 08:55:05;;;;;;;7.70;7.18;;;29.80;99.90;;;;;;5066792;28;20206;-59
2023/06/24 08:57:32;;;;;;;9.10;7.15;;;29.60;99.90;;;;;;5066513;28;20278;-60
2023/06/24 08:59:59;;;;;;;6.40;6.00;;;29.80;99.90;;;;;;5071259;28;20229;-60
2023/06/24 09:02:28;;;;;;;6.55;6.05;;;30.00;99.90;;;;;;5069996;28;20201;-59
2023/06/24 09:04:55;;;;;;;8.68;6.85;;;29.70;99.90;;;;;;5071201;28;20361;-60
2023/06/24 09:07:29;;;;;;;6.22;5.93;;;29.50;99.90;;;;;;5051277;28;20347;-60
2023/06/24 09:12:30;;;;;;;6.28;5.82;;;29.90;99.90;;;;;;5088441;22;20241;-62
2023/06/24 09:14:57;;;;;;;5.13;4.75;;;29.30;99.90;;;;;;5069908;28;20255;-62
2023/06/24 09:17:24;;;;;;;5.35;5.05;;;29.90;99.90;;;;;;5069891;28;20189;-62
2023/06/24 09:19:51;;;;;;;5.00;4.75;;;29.50;99.90;;;;;;5069928;28;20586;-62
2023/06/24 09:22:18;;;;;;;4.93;4.72;;;29.80;99.90;;;;;;5069499;28;20247;-62
2023/06/24 09:24:46;;;;;;;5.53;4.97;;;29.50;99.90;;;;;;5069854;28;20505;-62
2023/06/24 09:27:16;;;;;;;5.95;5.60;;;29.90;99.90;;;;;;5067523;28;20217;-61
2023/06/24 09:29:43;;;;;;;4.30;4.00;;;29.90;99.90;;;;;;5069468;28;20201;-62
2023/06/24 09:32:11;;;;;;;4.55;4.30;;;30.50;99.90;;;;;;5069419;28;20225;-62
2023/06/24 09:34:38;;;;;;;4.30;4.10;;;31.10;99.30;;;;;;5069695;28;20623;-63
2023/06/24 09:37:06;;;;;;;4.85;4.35;;;31.60;99.60;;;;;;5069556;28;20292;-63
2023/06/24 09:39:37;;;;;;;3.72;3.60;;;31.30;99.90;;;;;;5069576;28;20244;-63
2023/06/24 09:42:06;;;;;;;2.88;2.78;;;30.90;99.90;;;;;;5066607;28;20458;-62
2023/06/24 09:44:35;;;;;;;2.70;2.60;;;31.00;99.80;;;;;;5063422;28;20706;-62
2023/06/24 09:47:02;;;;;;;3.13;3.03;;;31.20;98.90;;;;;;5068541;28;20213;-62
2023/06/24 09:49:30;;;;;;;2.67;2.58;;;31.10;99.90;;;;;;5066605;28;20259;-63
2023/06/24 09:52:00;;;;;;;3.03;2.92;;;31.20;96.90;;;;;;5058585;28;20576;-62
2023/06/24 09:54:29;;;;;;;3.55;3.35;;;31.40;95.90;;;;;;5065363;28;20579;-63
2023/06/24 09:57:00;;;;;;;3.60;3.50;;;31.10;97.50;;;;;;5066770;28;20682;-62
2023/06/24 09:59:28;;;;;;;3.22;3.03;;;31.10;97.30;;;;;;5068412;28;20242;-62
2023/06/24 10:01:58;;;;;;;2.88;2.78;;;31.00;98.20;;;;;;5068885;28;20220;-62
2023/06/24 10:04:28;;;;;;;2.75;2.65;;;30.80;96.60;;;;;;5055015;28;20279;-62
2023/06/24 10:06:55;;;;;;;3.00;2.90;;;30.80;94.20;;;;;;5061057;28;20217;-62
2023/06/24 10:09:23;;;;;;;2.67;2.63;;;31.30;98.00;;;;;;5061495;28;20486;-65
2023/06/24 10:11:50;;;;;;;3.35;3.25;;;30.60;96.00;;;;;;5062845;28;20233;-65
2023/06/24 10:14:18;;;;;;;3.67;3.50;;;30.90;97.50;;;;;;5068699;28;20555;-64
2023/06/24 10:16:45;;;;;;;3.40;3.13;;;31.30;95.90;;;;;;5063180;28;20197;-65
2023/06/24 10:19:21;;;;;;;3.22;3.13;;;31.00;95.30;;;;;;5065776;28;20205;-59
2023/06/24 10:21:52;;;;;;;3.22;3.03;;;31.00;98.10;;;;;;5067932;28;20453;-63
2023/06/24 10:24:32;;;;;;;2.45;2.35;;;30.90;97.10;;;;;;5064341;28;20193;-63
2023/06/24 10:27:04;;;;;;;2.83;2.63;;;31.00;96.00;;;;;;5068759;28;20323;-64
2023/06/24 10:29:35;;;;;;;2.97;2.80;;;30.70;94.40;;;;;;5072428;28;20259;-59
2023/06/24 10:32:04;;;;;;;2.70;2.60;;;30.40;96.00;;;;;;5072413;28;20308;-60
2023/06/24 10:34:44;;;;;;;2.60;2.40;;;30.90;94.10;;;;;;5069283;28;20193;-60
2023/06/24 10:37:13;;;;;;;2.88;2.75;;;30.90;92.00;;;;;;5063205;28;20250;-60
2023/06/24 10:39:56;;;;;;;2.67;2.58;;;30.90;90.20;;;;;;5070622;28;20196;-60
2023/06/24 10:42:41;;;;;;;2.20;2.20;;;31.20;91.50;;;;;;5060670;28;20217;-68
2023/06/24 10:45:17;;;;;;;2.80;1.80;;;30.50;94.90;;;;;;5068435;28;20752;-70
2023/06/24 10:47:46;;;;;;;1.83;1.83;;;30.60;94.20;;;;;;5068039;28;20715;-70
2023/06/24 10:50:15;;;;;;;2.38;2.28;;;30.40;91.40;;;;;;5063156;28;20595;-68
2023/06/24 10:52:44;;;;;;;2.38;2.35;;;30.20;91.80;;;;;;5067717;28;20635;-67
2023/06/24 10:55:11;;;;;;;2.97;2.78;;;29.80;90.60;;;;;;5064698;28;20556;-66
2023/06/24 10:57:38;;;;;;;3.00;2.90;;;29.30;92.40;;;;;;5070522;28;20194;-68
2023/06/24 11:00:07;;;;;;;2.60;2.50;;;29.50;94.20;;;;;;5069071;28;20667;-70
2023/06/24 11:02:34;;;;;;;2.50;2.50;;;29.30;92.50;;;;;;5066273;28;20220;-70
2023/06/24 11:05:02;;;;;;;2.92;2.83;;;28.90;93.30;;;;;;5061350;28;20197;-74
2023/06/24 11:07:34;;;;;;;2.88;2.78;;;28.90;93.90;;;;;;5066216;28;20217;-70
2023/06/24 11:10:05;;;;;;;2.72;2.63;;;28.70;92.80;;;;;;5070551;28;20201;-71
2023/06/24 11:12:33;;;;;;;2.88;2.78;;;28.60;95.80;;;;;;5071430;28;20734;-71
2023/06/24 11:15:04;;;;;;;2.63;2.42;;;28.50;94.00;;;;;;5071484;28;20732;-67
2023/06/24 11:17:31;;;;;;;2.97;2.78;;;28.60;92.90;;;;;;5066147;28;20202;-69
2023/06/24 11:19:59;;;;;;;2.60;2.53;;;28.30;96.10;;;;;;5065458;28;20201;-67
2023/06/24 11:22:30;;;;;;;3.45;2.72;;;28.40;96.00;;;;;;5051222;28;20230;-64
2023/06/24 11:24:58;;;;;;;2.53;2.45;;;28.20;94.60;;;;;;5051889;28;20194;-58
2023/06/24 11:27:27;;;;;;;3.03;2.83;;;28.00;96.50;;;;;;5053485;28;20671;-58
2023/06/24 11:29:54;;;;;;;2.72;2.58;;;27.90;96.70;;;;;;5070461;28;20193;-59
2023/06/24 11:32:21;;;;;;;3.70;3.38;;;28.00;95.50;;;;;;5068906;28;20581;-59
2023/06/24 11:34:49;;;;;;;3.38;3.17;;;28.00;96.90;;;;;;5071349;28;20201;-58
2023/06/24 11:37:18;;;;;;;3.35;3.15;;;27.70;96.40;;;;;;5060655;28;20214;-58
2023/06/24 11:39:45;;;;;;;2.55;2.50;;;27.20;96.20;;;;;;5051596;28;20202;-58
2023/06/24 11:42:15;;;;;;;2.93;2.83;;;27.10;96.30;;;;;;5054473;28;20217;-58
2023/06/24 11:44:44;;;;;;;3.35;3.20;;;27.10;96.20;;;;;;5069785;28;20219;-58
2023/06/24 11:47:12;;;;;;;2.73;2.63;;;26.90;98.10;;;;;;5064810;28;20255;-58
2023/06/24 11:49:53;;;;;;;3.20;3.03;;;26.80;97.70;;;;;;5070472;28;20292;-58
2023/06/24 11:52:20;;;;;;;3.80;3.30;;;26.90;99.00;;;;;;5063911;28;20694;-59
2023/06/24 11:54:51;;;;;;;3.30;3.10;;;26.90;98.90;;;;;;5068654;28;20288;-58
2023/06/24 11:57:19;;;;;;;2.72;2.53;;;27.00;97.50;;;;;;5063788;28;20201;-59
2023/06/24 11:59:46;;;;;;;2.85;2.65;;;27.10;92.30;;;;;;5063079;28;20262;-59
2023/06/24 12:02:15;;;;;;;2.75;2.65;;;27.00;92.00;;;;;;5070493;28;20224;-59
2023/06/24 12:04:45;;;;;;;2.55;2.45;;;27.30;95.50;;;;;;5069154;28;20193;-59
2023/06/24 12:07:12;;;;;;;3.78;2.85;;;27.20;98.30;;;;;;5063505;28;20263;-59
2023/06/24 12:09:39;;;;;;;2.67;2.47;;;27.00;94.00;;;;;;5069432;28;20262;-59
2023/06/24 12:12:07;;;;;;;2.70;2.50;;;27.00;92.20;;;;;;5065546;28;20617;-59
2023/06/24 12:14:36;;;;;;;2.20;2.20;;;27.00;91.70;;;;;;5068951;28;20298;-59
2023/06/24 12:17:03;;;;;;;2.67;2.58;;;26.90;91.30;;;;;;5071206;28;20731;-59
2023/06/24 12:19:30;;;;;;;2.65;2.55;;;26.80;93.10;;;;;;5068734;28;20275;-59
2023/06/24 12:21:56;;;;;;;2.42;2.33;;;26.80;92.90;;;;;;5070788;28;20220;-59
2023/06/24 12:24:24;;;;;;;2.10;2.00;;;26.80;93.30;;;;;;5070026;28;20258;-59
2023/06/24 12:26:51;;;;;;;2.78;2.67;;;26.70;92.50;;;;;;5070955;28;20211;-59
2023/06/24 12:29:18;;;;;;;3.53;3.20;;;26.70;93.60;;;;;;5069949;28;20227;-59
2023/06/24 12:31:46;;;;;;;3.10;2.70;;;26.60;93.10;;;;;;5069832;28;20221;-58
2023/06/24 12:34:13;;;;;;;1.77;1.67;;;26.50;93.40;;;;;;5061653;28;20201;-60
2023/06/24 12:36:40;;;;;;;2.40;2.20;;;26.60;93.70;;;;;;5069856;28;20201;-59
2023/06/24 12:39:07;;;;;;;3.20;3.03;;;26.60;91.70;;;;;;5059275;28;20247;-58
2023/06/24 12:41:34;;;;;;;2.43;2.33;;;26.80;94.30;;;;;;5070132;28;20213;-59
2023/06/24 12:44:02;;;;;;;2.80;2.50;;;26.80;94.10;;;;;;5058810;28;20205;-58
2023/06/24 12:46:29;;;;;;;2.20;2.20;;;26.70;92.80;;;;;;5064246;28;20221;-59
2023/06/24 12:48:57;;;;;;;3.07;2.87;;;26.50;93.30;;;;;;5070274;28;20359;-59
2023/06/24 12:51:24;;;;;;;3.00;2.90;;;26.40;93.50;;;;;;5058598;28;20540;-58
2023/06/24 12:53:51;;;;;;;2.47;2.37;;;26.40;93.30;;;;;;5063725;28;20573;-59